Time;durP1;ratioP1;P1;durP2;ratioP2;P2;SDS_P1;SDS_P2;PMS_P1;PMS_P2;Temp;Humidity;BMP_temperature;BMP_pressure;BME280_temperature;BME280_humidity;BME280_pressure;Samples;Min_cycle;Max_cycle;Signal;HPM_P1;HPM_P2
2022/06/30 00:00:11;;;;;;;1.05;1.05;;;20.90;99.90;;;;;;5029374;28;20570;-67
2022/06/30 00:02:37;;;;;;;1.02;1.02;;;20.80;99.90;;;;;;5030169;28;20283;-65
2022/06/30 00:05:05;;;;;;;0.90;0.90;;;20.70;99.90;;;;;;5032048;28;20215;-65
2022/06/30 00:07:32;;;;;;;1.00;1.00;;;20.70;99.90;;;;;;5033866;28;20252;-66
2022/06/30 00:12:29;;;;;;;1.00;1.00;;;20.50;99.90;;;;;;5075309;28;20216;-63
2022/06/30 00:14:56;;;;;;;1.55;1.00;;;20.40;99.90;;;;;;5079933;28;20238;-66
2022/06/30 00:17:23;;;;;;;1.00;1.00;;;20.40;99.90;;;;;;5086953;28;20267;-63
2022/06/30 00:19:50;;;;;;;0.90;0.90;;;20.30;99.90;;;;;;5093714;28;20233;-63
2022/06/30 00:22:17;;;;;;;1.67;1.00;;;20.30;99.90;;;;;;5055468;28;20215;-63
2022/06/30 00:24:44;;;;;;;0.93;0.93;;;20.20;99.90;;;;;;5064990;28;20683;-66
2022/06/30 00:27:11;;;;;;;0.90;0.90;;;20.10;99.90;;;;;;5054910;28;20286;-65
2022/06/30 00:29:39;;;;;;;0.93;0.93;;;20.10;99.90;;;;;;5058029;28;20212;-65
2022/06/30 00:32:07;;;;;;;1.00;1.00;;;20.00;99.90;;;;;;5056617;28;20239;-65
2022/06/30 00:34:34;;;;;;;1.05;1.00;;;20.00;99.90;;;;;;5057532;28;20207;-66
2022/06/30 00:37:01;;;;;;;1.15;1.10;;;20.00;99.90;;;;;;5054092;28;20658;-66
2022/06/30 00:39:29;;;;;;;1.45;1.10;;;20.00;99.90;;;;;;5054848;28;20204;-64
2022/06/30 00:41:56;;;;;;;0.90;0.90;;;20.10;99.90;;;;;;5054158;28;20308;-62
2022/06/30 00:44:23;;;;;;;1.10;1.10;;;20.10;99.90;;;;;;5054612;28;20208;-64
2022/06/30 00:46:51;;;;;;;1.00;1.00;;;20.10;99.90;;;;;;5048301;28;20200;-64
2022/06/30 00:49:19;;;;;;;0.90;0.90;;;20.00;99.90;;;;;;5054021;28;20206;-64
2022/06/30 00:51:46;;;;;;;1.15;0.95;;;19.90;99.90;;;;;;5053397;28;20227;-64
2022/06/30 00:54:13;;;;;;;1.02;1.00;;;19.80;99.90;;;;;;5053912;28;20378;-64
2022/06/30 00:56:43;;;;;;;0.90;0.90;;;19.80;99.90;;;;;;5056286;28;20295;-70
2022/06/30 00:59:13;;;;;;;0.98;0.98;;;19.80;99.90;;;;;;5054981;28;20199;-64
2022/06/30 01:01:43;;;;;;;0.95;0.95;;;19.80;99.90;;;;;;5056824;28;20230;-65
2022/06/30 01:04:13;;;;;;;0.90;0.90;;;19.80;99.90;;;;;;5053094;28;20204;-65
2022/06/30 01:06:44;;;;;;;1.10;1.10;;;19.80;99.90;;;;;;5054250;28;20239;-66
2022/06/30 01:09:11;;;;;;;0.88;0.88;;;19.60;99.90;;;;;;5055100;28;20204;-64
2022/06/30 01:14:27;;;;;;;1.00;1.00;;;19.50;99.90;;;;;;5008853;28;20206;-64
2022/06/30 01:16:54;;;;;;;1.10;1.00;;;19.60;99.90;;;;;;5059381;28;20263;-65
2022/06/30 01:19:22;;;;;;;1.45;1.20;;;19.50;99.90;;;;;;5054445;28;20622;-64
2022/06/30 01:22:00;;;;;;;1.00;1.00;;;19.60;99.90;;;;;;5061930;28;20302;-64
2022/06/30 01:24:27;;;;;;;1.50;1.10;;;19.70;99.90;;;;;;5052230;28;20239;-64
2022/06/30 01:26:57;;;;;;;1.00;1.00;;;19.70;99.90;;;;;;5056478;28;20208;-65
2022/06/30 01:29:24;;;;;;;0.95;0.95;;;19.70;99.90;;;;;;5050100;28;20203;-65
2022/06/30 01:31:51;;;;;;;1.17;1.00;;;19.70;99.90;;;;;;5055532;28;20239;-64
2022/06/30 01:34:18;;;;;;;1.27;1.17;;;19.70;99.90;;;;;;5062931;28;20696;-65
2022/06/30 01:36:45;;;;;;;1.05;0.93;;;19.70;99.90;;;;;;5058608;28;20670;-64
2022/06/30 01:39:13;;;;;;;0.90;0.90;;;19.60;99.90;;;;;;5058610;28;20210;-63
2022/06/30 01:41:40;;;;;;;1.00;1.00;;;19.50;99.90;;;;;;5058551;28;20314;-65
2022/06/30 01:44:06;;;;;;;0.90;0.90;;;19.40;99.90;;;;;;5051217;28;20254;-64
2022/06/30 01:46:34;;;;;;;1.00;1.00;;;19.40;99.90;;;;;;5052428;28;20326;-64
2022/06/30 01:49:08;;;;;;;0.85;0.85;;;19.40;99.90;;;;;;5054292;28;20211;-65
2022/06/30 01:51:35;;;;;;;1.02;1.02;;;19.50;99.90;;;;;;5040248;28;20266;-64
2022/06/30 01:54:01;;;;;;;1.00;1.00;;;19.40;99.90;;;;;;5052932;28;20232;-64
2022/06/30 01:56:30;;;;;;;0.95;0.95;;;19.30;99.90;;;;;;5052613;28;20294;-64
2022/06/30 01:58:57;;;;;;;1.20;1.20;;;19.20;99.90;;;;;;5052393;28;20295;-65
2022/06/30 02:01:23;;;;;;;1.02;1.02;;;19.10;99.90;;;;;;5052840;28;20311;-64
2022/06/30 02:03:50;;;;;;;1.00;1.00;;;19.10;99.90;;;;;;5053962;28;20702;-64
2022/06/30 02:06:17;;;;;;;1.75;1.10;;;18.90;99.90;;;;;;5061605;28;20224;-64
2022/06/30 02:08:44;;;;;;;0.95;0.95;;;18.90;99.90;;;;;;5071457;28;20208;-64
2022/06/30 02:11:11;;;;;;;1.48;1.20;;;18.80;99.90;;;;;;5072155;28;20231;-64
2022/06/30 02:13:39;;;;;;;1.00;1.00;;;18.80;99.90;;;;;;5062601;28;20223;-66
2022/06/30 02:16:06;;;;;;;1.00;1.00;;;18.80;99.90;;;;;;5062999;28;20303;-64
2022/06/30 02:18:33;;;;;;;0.90;0.90;;;18.70;99.90;;;;;;5054587;28;20212;-64
2022/06/30 02:21:00;;;;;;;1.30;1.20;;;18.70;99.90;;;;;;5052840;28;20251;-64
2022/06/30 02:23:27;;;;;;;1.00;1.00;;;18.70;99.90;;;;;;5052109;28;20235;-64
2022/06/30 02:25:54;;;;;;;1.00;1.00;;;18.80;99.90;;;;;;5053249;28;20294;-63
2022/06/30 02:28:21;;;;;;;1.92;1.13;;;19.10;99.90;;;;;;5053179;28;20204;-63
2022/06/30 02:30:49;;;;;;;1.27;1.00;;;19.20;99.90;;;;;;5053426;28;20697;-64
2022/06/30 02:33:18;;;;;;;1.02;1.02;;;19.20;99.90;;;;;;5054342;28;20307;-65
2022/06/30 02:35:45;;;;;;;1.00;1.00;;;19.10;99.90;;;;;;5055329;28;20231;-64
2022/06/30 02:38:12;;;;;;;1.00;1.00;;;19.00;99.90;;;;;;5055143;28;20321;-65
2022/06/30 02:40:39;;;;;;;1.05;1.05;;;18.90;99.90;;;;;;5052212;28;20224;-64
2022/06/30 02:43:06;;;;;;;0.90;0.90;;;18.80;99.90;;;;;;5055108;28;20294;-65
2022/06/30 02:45:33;;;;;;;0.90;0.90;;;18.80;99.90;;;;;;5052583;28;20234;-64
2022/06/30 02:48:01;;;;;;;1.10;1.10;;;18.70;99.90;;;;;;5051387;28;20314;-64
2022/06/30 02:50:28;;;;;;;1.00;1.00;;;18.70;99.90;;;;;;5051971;28;20223;-65
2022/06/30 02:52:56;;;;;;;1.00;1.00;;;18.60;99.90;;;;;;5051949;28;20239;-65
2022/06/30 02:55:23;;;;;;;0.90;0.90;;;18.60;99.90;;;;;;5052169;28;20240;-63
2022/06/30 02:57:50;;;;;;;1.02;1.02;;;18.60;99.90;;;;;;5051923;28;20566;-66
2022/06/30 03:00:17;;;;;;;1.20;1.10;;;18.60;99.90;;;;;;5056921;28;20319;-64
2022/06/30 03:02:46;;;;;;;1.33;1.23;;;18.60;99.90;;;;;;5069309;28;20200;-64
2022/06/30 03:05:14;;;;;;;0.90;0.90;;;18.60;99.90;;;;;;5057646;28;20211;-64
2022/06/30 03:07:41;;;;;;;1.10;1.10;;;18.70;99.90;;;;;;5054480;28;20352;-64
2022/06/30 03:10:09;;;;;;;1.00;1.00;;;18.60;99.90;;;;;;5053976;28;20214;-63
2022/06/30 03:12:37;;;;;;;0.80;0.80;;;18.50;99.90;;;;;;5046616;28;20307;-64
2022/06/30 03:15:05;;;;;;;1.08;1.00;;;18.50;99.90;;;;;;5050172;28;20200;-63
2022/06/30 03:17:32;;;;;;;1.33;1.23;;;18.50;99.90;;;;;;5044895;28;20574;-64
2022/06/30 03:19:59;;;;;;;1.20;1.10;;;18.30;99.90;;;;;;5049127;28;20239;-64
2022/06/30 03:22:27;;;;;;;0.85;0.85;;;18.30;99.90;;;;;;5051559;28;20200;-64
2022/06/30 03:24:54;;;;;;;0.90;0.85;;;18.30;99.90;;;;;;5051335;28;20262;-64
2022/06/30 03:27:21;;;;;;;1.02;1.00;;;18.20;99.90;;;;;;5043203;28;20211;-64
2022/06/30 03:29:48;;;;;;;0.95;0.95;;;18.30;99.90;;;;;;5051382;28;20214;-62
2022/06/30 03:32:15;;;;;;;1.00;1.00;;;18.20;99.90;;;;;;5051047;28;20314;-64
2022/06/30 03:34:41;;;;;;;0.90;0.90;;;18.40;99.90;;;;;;5051023;28;20211;-62
2022/06/30 03:37:08;;;;;;;0.90;0.90;;;18.80;99.90;;;;;;5050746;28;20218;-65
2022/06/30 03:39:36;;;;;;;1.02;1.02;;;19.10;99.90;;;;;;5045210;28;20678;-63
2022/06/30 03:42:04;;;;;;;0.90;0.90;;;19.40;99.90;;;;;;5064123;28;20261;-64
2022/06/30 03:44:30;;;;;;;1.00;1.00;;;19.60;99.90;;;;;;5050819;28;20222;-64
2022/06/30 03:46:57;;;;;;;1.00;1.00;;;19.80;99.90;;;;;;5050112;28;20701;-63
2022/06/30 03:49:24;;;;;;;0.82;0.82;;;20.00;99.90;;;;;;5052120;28;20242;-63
2022/06/30 03:51:51;;;;;;;1.00;1.00;;;20.00;99.90;;;;;;5056544;28;20223;-63
2022/06/30 03:54:19;;;;;;;0.90;0.90;;;20.10;99.90;;;;;;5055468;28;20220;-63
2022/06/30 03:56:47;;;;;;;0.90;0.90;;;20.00;99.90;;;;;;5056005;28;20208;-63
2022/06/30 03:59:14;;;;;;;1.10;1.00;;;20.10;99.90;;;;;;5057089;28;20275;-64
2022/06/30 04:01:41;;;;;;;1.00;1.00;;;20.20;99.90;;;;;;5058734;28;20227;-64
2022/06/30 04:04:08;;;;;;;1.20;1.10;;;20.40;99.90;;;;;;5058715;28;20292;-64
2022/06/30 04:06:35;;;;;;;1.08;1.08;;;20.40;99.90;;;;;;5048052;28;20285;-64
2022/06/30 04:09:02;;;;;;;1.10;1.10;;;20.50;99.90;;;;;;5054882;28;20227;-65
2022/06/30 04:11:28;;;;;;;0.90;0.90;;;20.40;99.90;;;;;;5056197;28;20238;-65
2022/06/30 04:13:57;;;;;;;0.80;0.80;;;20.20;99.90;;;;;;5053709;28;20227;-64
2022/06/30 04:16:24;;;;;;;0.90;0.90;;;20.00;99.90;;;;;;5054809;28;20309;-64
2022/06/30 04:18:51;;;;;;;0.90;0.90;;;19.80;99.90;;;;;;5051942;28;20678;-65
2022/06/30 04:21:18;;;;;;;0.90;0.90;;;19.80;99.90;;;;;;5054438;28;20254;-65
2022/06/30 04:23:45;;;;;;;1.10;1.10;;;19.80;99.90;;;;;;5051979;28;20247;-65
2022/06/30 04:26:12;;;;;;;0.98;0.98;;;19.80;99.90;;;;;;5055209;28;20203;-65
2022/06/30 04:28:39;;;;;;;1.17;1.10;;;19.80;99.90;;;;;;5054936;28;20701;-65
2022/06/30 04:33:52;;;;;;;2.28;1.00;;;19.90;99.90;;;;;;5056169;28;20227;-65
2022/06/30 04:36:19;;;;;;;1.10;1.10;;;20.10;99.90;;;;;;5048676;28;20301;-64
2022/06/30 04:38:46;;;;;;;1.25;0.90;;;20.10;99.90;;;;;;5054257;28;20212;-65
2022/06/30 04:41:25;;;;;;;1.02;1.02;;;20.10;99.90;;;;;;5050163;28;20221;-65
2022/06/30 04:43:56;;;;;;;0.98;0.98;;;19.80;99.90;;;;;;5059013;28;20298;-65
2022/06/30 04:46:26;;;;;;;1.05;1.05;;;19.70;99.90;;;;;;5054901;28;20200;-65
2022/06/30 04:48:53;;;;;;;1.10;1.10;;;19.80;99.90;;;;;;5048481;28;20215;-66
2022/06/30 04:51:21;;;;;;;0.88;0.88;;;19.80;99.90;;;;;;5061786;28;20251;-64
2022/06/30 04:53:48;;;;;;;1.15;1.10;;;19.90;99.90;;;;;;5065460;28;20224;-64
2022/06/30 04:56:15;;;;;;;1.20;1.20;;;20.00;99.90;;;;;;5061154;28;20208;-63
2022/06/30 04:58:42;;;;;;;1.27;1.17;;;20.00;99.90;;;;;;5058835;28;20200;-64
2022/06/30 05:01:10;;;;;;;1.87;1.10;;;20.00;99.90;;;;;;5054093;28;20750;-65
2022/06/30 05:03:38;;;;;;;1.17;1.10;;;20.00;99.90;;;;;;5054797;28;20207;-64
2022/06/30 05:06:06;;;;;;;1.00;1.00;;;20.00;99.90;;;;;;5055221;28;20287;-64
2022/06/30 05:08:33;;;;;;;1.10;1.00;;;20.00;99.90;;;;;;5058042;28;20639;-63
2022/06/30 05:11:00;;;;;;;1.00;1.00;;;20.10;99.90;;;;;;5054321;28;20228;-64
2022/06/30 05:13:27;;;;;;;1.27;1.10;;;20.30;99.90;;;;;;5063302;28;20288;-69
2022/06/30 05:15:55;;;;;;;1.10;1.10;;;20.30;99.90;;;;;;5069514;28;20276;-70
2022/06/30 05:18:24;;;;;;;1.13;1.05;;;20.40;99.90;;;;;;5071851;28;20203;-70
2022/06/30 05:20:52;;;;;;;1.10;1.10;;;20.40;99.90;;;;;;5075663;28;20255;-70
2022/06/30 05:23:19;;;;;;;1.00;1.00;;;20.50;99.90;;;;;;5057516;28;20228;-69
2022/06/30 05:28:30;;;;;;;1.15;1.15;;;20.80;99.90;;;;;;5059893;28;20218;-70
2022/06/30 05:30:57;;;;;;;0.90;0.90;;;20.90;99.90;;;;;;5056124;28;20278;-69
2022/06/30 05:33:24;;;;;;;1.13;1.10;;;21.00;99.90;;;;;;5054045;28;20228;-70
2022/06/30 05:35:54;;;;;;;1.95;1.00;;;21.10;99.90;;;;;;5056883;28;20239;-68
2022/06/30 05:38:21;;;;;;;1.00;1.00;;;21.20;99.90;;;;;;5061586;28;20214;-69
2022/06/30 05:40:48;;;;;;;0.90;0.90;;;21.30;99.90;;;;;;5062532;28;20314;-68
2022/06/30 05:43:16;;;;;;;1.00;1.00;;;21.50;99.90;;;;;;5059072;28;20288;-69
2022/06/30 05:45:45;;;;;;;1.00;1.00;;;21.70;99.90;;;;;;5065254;28;20303;-69
2022/06/30 05:48:12;;;;;;;1.00;1.00;;;21.70;99.90;;;;;;5060631;28;20208;-69
2022/06/30 05:50:39;;;;;;;1.15;1.15;;;21.90;99.90;;;;;;5057377;28;20265;-69
2022/06/30 05:53:07;;;;;;;1.20;1.20;;;22.00;99.90;;;;;;5054840;28;20239;-70
2022/06/30 05:55:34;;;;;;;1.20;1.10;;;22.10;99.90;;;;;;5078817;28;20216;-71
2022/06/30 05:58:03;;;;;;;1.10;1.10;;;22.30;99.90;;;;;;5062962;28;20200;-68
2022/06/30 06:00:32;;;;;;;1.10;1.10;;;22.40;99.90;;;;;;5051329;28;20706;-69
2022/06/30 06:02:59;;;;;;;1.13;1.10;;;22.50;99.90;;;;;;5053742;28;20288;-70
2022/06/30 06:05:26;;;;;;;1.00;1.00;;;22.60;99.90;;;;;;5053919;28;20200;-68
2022/06/30 06:07:53;;;;;;;1.00;1.00;;;22.70;99.90;;;;;;5053301;28;20272;-68
2022/06/30 06:10:22;;;;;;;1.25;0.93;;;22.90;99.90;;;;;;5055212;28;20244;-69
2022/06/30 06:12:49;;;;;;;2.40;2.30;;;23.00;99.90;;;;;;5056982;28;20283;-69
2022/06/30 06:15:16;;;;;;;1.67;1.15;;;23.10;99.90;;;;;;5054385;28;20764;-69
2022/06/30 06:17:44;;;;;;;1.00;1.00;;;23.20;99.90;;;;;;5064081;28;20272;-68
2022/06/30 06:20:13;;;;;;;1.27;1.15;;;23.30;99.90;;;;;;5065617;28;20232;-69
2022/06/30 06:22:40;;;;;;;1.17;1.17;;;23.40;99.90;;;;;;5067353;28;20561;-69
2022/06/30 06:25:08;;;;;;;1.30;1.20;;;23.50;99.90;;;;;;5053857;28;20646;-68
2022/06/30 06:27:37;;;;;;;1.00;1.00;;;23.60;99.90;;;;;;5061831;28;20266;-67
2022/06/30 06:30:05;;;;;;;0.95;0.95;;;23.60;99.90;;;;;;5056411;28;20284;-69
2022/06/30 06:32:33;;;;;;;1.10;1.00;;;23.80;99.90;;;;;;5062880;28;20203;-70
2022/06/30 06:35:00;;;;;;;1.02;1.02;;;23.90;99.90;;;;;;5048567;28;20220;-69
2022/06/30 06:37:27;;;;;;;0.80;0.80;;;24.00;99.90;;;;;;5058291;28;20196;-70
2022/06/30 06:39:54;;;;;;;1.00;1.00;;;24.20;99.90;;;;;;5054985;28;20204;-69
2022/06/30 06:42:21;;;;;;;0.90;0.90;;;24.40;99.90;;;;;;5065695;28;20251;-68
2022/06/30 06:44:49;;;;;;;1.00;1.00;;;24.50;99.90;;;;;;5057635;28;20242;-69
2022/06/30 06:47:17;;;;;;;1.15;1.00;;;24.60;99.90;;;;;;5058093;28;20226;-71
2022/06/30 06:49:44;;;;;;;1.10;1.10;;;24.70;99.90;;;;;;5057349;28;21748;-68
2022/06/30 06:52:11;;;;;;;1.20;1.20;;;24.80;99.90;;;;;;5062893;28;20226;-68
2022/06/30 06:54:38;;;;;;;1.17;1.08;;;24.90;99.90;;;;;;5070692;28;20250;-69
2022/06/30 06:57:05;;;;;;;0.88;0.88;;;24.90;99.90;;;;;;5063488;28;20226;-68
2022/06/30 06:59:34;;;;;;;1.00;1.00;;;24.90;99.90;;;;;;5058232;28;20250;-69
2022/06/30 07:02:02;;;;;;;0.90;0.90;;;25.00;99.90;;;;;;5047850;28;20729;-68
2022/06/30 07:04:29;;;;;;;0.98;0.98;;;25.10;99.90;;;;;;5053835;28;20223;-69
2022/06/30 07:06:56;;;;;;;1.17;1.13;;;25.20;99.90;;;;;;5068256;22;20263;-64
2022/06/30 07:09:22;;;;;;;1.10;1.10;;;25.20;99.90;;;;;;5059253;28;20639;-63
2022/06/30 07:11:49;;;;;;;1.00;1.00;;;25.30;99.90;;;;;;5066453;28;20221;-64
2022/06/30 07:14:16;;;;;;;0.85;0.85;;;25.40;99.90;;;;;;5066674;28;20246;-65
2022/06/30 07:16:43;;;;;;;1.15;0.90;;;25.50;99.90;;;;;;5052732;28;20627;-64
2022/06/30 07:19:11;;;;;;;0.90;0.90;;;25.40;99.90;;;;;;5051285;28;20723;-65
2022/06/30 07:21:38;;;;;;;1.05;1.05;;;25.40;99.90;;;;;;5052730;28;20211;-64
2022/06/30 07:24:05;;;;;;;1.23;1.10;;;25.50;99.90;;;;;;5051305;28;20224;-65
2022/06/30 07:26:33;;;;;;;1.10;1.10;;;25.50;99.90;;;;;;5054080;28;20243;-64
2022/06/30 07:28:59;;;;;;;1.15;1.10;;;25.60;99.90;;;;;;5049997;28;20212;-65
2022/06/30 07:31:26;;;;;;;1.20;1.10;;;25.60;99.90;;;;;;5063488;28;20278;-65
2022/06/30 07:33:53;;;;;;;1.00;1.00;;;25.60;99.90;;;;;;5063283;28;20246;-65
2022/06/30 07:36:22;;;;;;;1.10;1.10;;;25.70;99.90;;;;;;5066962;28;20214;-65
2022/06/30 07:38:50;;;;;;;1.00;1.00;;;25.70;99.90;;;;;;5066810;28;20314;-66
2022/06/30 07:41:17;;;;;;;0.95;0.95;;;25.80;99.90;;;;;;5062758;28;20215;-65
2022/06/30 07:43:44;;;;;;;1.00;1.00;;;25.80;99.90;;;;;;5060410;28;20211;-65
2022/06/30 07:46:11;;;;;;;0.80;0.80;;;25.80;99.90;;;;;;5060744;28;20208;-64
2022/06/30 07:48:38;;;;;;;1.02;1.02;;;26.00;99.90;;;;;;5063476;28;20227;-64
2022/06/30 07:51:06;;;;;;;1.15;0.98;;;26.00;99.90;;;;;;5062680;28;20268;-64
2022/06/30 07:53:34;;;;;;;0.90;0.90;;;26.00;99.90;;;;;;5062270;28;20199;-65
2022/06/30 07:56:01;;;;;;;0.90;0.90;;;26.10;99.90;;;;;;5058464;28;20235;-65
2022/06/30 07:58:28;;;;;;;2.08;1.13;;;26.20;99.90;;;;;;5061933;28;20229;-64
2022/06/30 08:00:55;;;;;;;1.10;1.00;;;26.20;99.90;;;;;;5064349;28;20289;-63
2022/06/30 08:03:22;;;;;;;0.90;0.90;;;26.30;99.90;;;;;;5061297;28;20303;-64
2022/06/30 08:05:49;;;;;;;1.02;1.02;;;26.40;99.90;;;;;;5062944;28;20621;-64
2022/06/30 08:08:16;;;;;;;1.10;1.10;;;26.50;99.90;;;;;;5054824;28;20800;-65
2022/06/30 08:10:44;;;;;;;0.98;0.98;;;26.40;99.90;;;;;;5063632;28;20213;-65
2022/06/30 08:13:11;;;;;;;0.98;0.98;;;26.50;99.90;;;;;;5059261;28;20753;-66
2022/06/30 08:15:38;;;;;;;1.05;1.05;;;26.60;99.90;;;;;;5062687;28;20223;-64
2022/06/30 08:18:06;;;;;;;1.10;1.10;;;26.70;99.90;;;;;;5063005;28;20288;-66
2022/06/30 08:20:33;;;;;;;1.00;1.00;;;26.80;99.90;;;;;;5062616;28;20287;-66
2022/06/30 08:23:00;;;;;;;1.00;1.00;;;26.80;99.90;;;;;;5061308;28;20210;-65
2022/06/30 08:25:27;;;;;;;1.27;1.17;;;26.80;99.90;;;;;;5050328;28;20198;-65
2022/06/30 08:27:56;;;;;;;0.98;0.98;;;27.00;99.90;;;;;;5056470;28;20250;-64
2022/06/30 08:30:23;;;;;;;1.02;1.02;;;27.10;99.90;;;;;;5062672;28;20195;-65
2022/06/30 08:32:50;;;;;;;1.55;1.08;;;27.20;99.90;;;;;;5060345;28;20282;-67
2022/06/30 08:35:16;;;;;;;1.10;1.10;;;27.30;99.90;;;;;;5061866;28;20310;-65
2022/06/30 08:37:43;;;;;;;1.20;1.10;;;27.40;99.90;;;;;;5066962;28;20224;-65
2022/06/30 08:43:04;;;;;;;1.13;1.13;;;27.30;99.90;;;;;;5009512;28;20570;-64
2022/06/30 08:45:31;;;;;;;1.30;1.20;;;27.30;99.90;;;;;;5077299;28;20195;-64
2022/06/30 08:47:58;;;;;;;1.13;1.13;;;27.40;99.90;;;;;;5077633;28;20233;-65
2022/06/30 08:50:25;;;;;;;1.40;1.30;;;27.50;99.90;;;;;;5068009;28;20226;-64
2022/06/30 08:52:54;;;;;;;1.85;1.20;;;27.70;99.90;;;;;;5054049;28;20276;-64
2022/06/30 08:55:25;;;;;;;1.20;1.10;;;27.80;99.90;;;;;;5058465;28;20212;-65
2022/06/30 08:57:55;;;;;;;1.17;1.08;;;27.90;99.90;;;;;;5053441;28;20311;-64
2022/06/30 09:00:24;;;;;;;0.80;0.80;;;27.90;99.90;;;;;;5054448;28;20200;-65
2022/06/30 09:02:51;;;;;;;1.73;1.30;;;28.00;99.90;;;;;;5054541;28;20211;-65
2022/06/30 09:05:17;;;;;;;1.10;1.10;;;27.90;99.90;;;;;;5053806;28;20204;-64
2022/06/30 09:07:44;;;;;;;1.02;1.02;;;28.00;99.90;;;;;;5051366;28;20342;-67
2022/06/30 09:10:11;;;;;;;0.95;0.95;;;28.30;99.90;;;;;;5049529;28;20199;-65
2022/06/30 09:12:39;;;;;;;1.02;1.02;;;28.30;99.90;;;;;;5052927;28;20325;-66
2022/06/30 09:15:06;;;;;;;0.98;0.98;;;28.10;99.90;;;;;;5053424;28;20686;-66
2022/06/30 09:17:35;;;;;;;1.00;1.00;;;28.20;99.90;;;;;;5047455;28;20303;-65
2022/06/30 09:20:03;;;;;;;1.00;1.00;;;28.40;99.90;;;;;;5049096;28;20208;-64
2022/06/30 09:22:32;;;;;;;0.90;0.90;;;28.50;99.90;;;;;;5053770;28;20299;-64
2022/06/30 09:25:00;;;;;;;1.35;1.15;;;28.40;99.90;;;;;;5054042;28;20202;-65
2022/06/30 09:27:29;;;;;;;1.00;1.00;;;28.40;99.90;;;;;;5063231;28;20311;-66
2022/06/30 09:30:03;;;;;;;1.10;1.10;;;28.50;99.90;;;;;;5055664;28;20220;-65
2022/06/30 09:32:30;;;;;;;1.00;1.00;;;28.60;99.90;;;;;;5059495;28;20265;-64
2022/06/30 09:35:10;;;;;;;1.33;1.20;;;28.80;99.90;;;;;;5061792;28;20247;-65
2022/06/30 09:37:38;;;;;;;1.05;1.05;;;28.80;99.90;;;;;;5057997;28;20723;-65
2022/06/30 09:40:07;;;;;;;1.05;0.90;;;28.90;99.90;;;;;;5062091;28;20250;-66
2022/06/30 09:42:43;;;;;;;1.00;1.00;;;29.10;99.90;;;;;;5057236;28;20246;-65
2022/06/30 09:45:12;;;;;;;0.90;0.90;;;29.10;99.90;;;;;;5061038;28;20219;-66
2022/06/30 09:47:53;;;;;;;1.10;1.10;;;29.20;99.90;;;;;;5057694;28;20689;-66
2022/06/30 09:50:32;;;;;;;1.00;1.00;;;29.20;99.90;;;;;;5058416;28;20203;-67
2022/06/30 09:53:10;;;;;;;1.00;1.00;;;29.30;99.90;;;;;;5050304;28;20192;-64
2022/06/30 09:55:40;;;;;;;0.90;0.90;;;29.30;99.90;;;;;;5060728;28;20325;-67
2022/06/30 09:58:08;;;;;;;1.10;1.10;;;29.40;99.90;;;;;;5062923;28;20238;-64
2022/06/30 10:00:49;;;;;;;0.90;0.90;;;29.30;99.90;;;;;;5056959;28;20620;-65
2022/06/30 10:03:24;;;;;;;1.17;1.08;;;29.30;99.90;;;;;;5058016;28;20200;-65
2022/06/30 10:06:18;;;;;;;1.00;1.00;;;29.40;99.90;;;;;;5062908;28;20295;-65
2022/06/30 10:08:54;;;;;;;1.05;1.00;;;29.40;99.90;;;;;;5057363;28;20239;-64
2022/06/30 10:11:23;;;;;;;0.98;0.98;;;29.40;99.90;;;;;;5064699;28;20207;-65
2022/06/30 10:13:59;;;;;;;1.17;1.10;;;29.50;99.90;;;;;;5053299;28;20231;-66
2022/06/30 10:16:28;;;;;;;0.80;0.80;;;29.60;99.90;;;;;;5049537;28;20226;-66
2022/06/30 10:18:56;;;;;;;0.77;0.77;;;29.60;99.90;;;;;;5053105;28;20227;-65
2022/06/30 10:21:25;;;;;;;0.90;0.90;;;29.60;99.90;;;;;;5048945;28;20201;-66
2022/06/30 10:23:53;;;;;;;0.90;0.90;;;29.80;99.90;;;;;;5052988;28;20202;-65
2022/06/30 10:29:08;;;;;;;0.90;0.90;;;30.00;99.90;;;;;;5053477;28;20265;-65
2022/06/30 10:31:40;;;;;;;0.80;0.80;;;30.20;99.90;;;;;;5047049;28;20214;-67
2022/06/30 10:34:13;;;;;;;0.93;0.93;;;30.30;99.90;;;;;;5054988;28;20202;-65
2022/06/30 10:36:48;;;;;;;0.95;0.95;;;30.40;99.90;;;;;;5052822;28;20212;-66
2022/06/30 10:39:23;;;;;;;1.02;1.00;;;30.40;99.90;;;;;;5052768;28;20216;-65
2022/06/30 10:41:52;;;;;;;1.67;1.00;;;30.50;99.90;;;;;;5052752;28;20245;-65
2022/06/30 10:44:29;;;;;;;1.00;1.00;;;30.50;99.90;;;;;;5051133;28;20204;-65
2022/06/30 10:47:10;;;;;;;0.90;0.90;;;30.50;99.90;;;;;;5055661;28;20223;-64
2022/06/30 10:49:58;;;;;;;1.00;1.00;;;30.50;99.90;;;;;;5062518;28;20195;-65
2022/06/30 10:52:34;;;;;;;1.20;0.88;;;30.60;99.90;;;;;;5060414;28;20595;-65
2022/06/30 10:55:07;;;;;;;0.90;0.90;;;30.70;99.90;;;;;;5060938;28;20269;-64
2022/06/30 10:57:59;;;;;;;0.90;0.90;;;30.70;99.90;;;;;;5056998;28;20750;-66
2022/06/30 11:01:00;;;;;;;0.90;0.90;;;30.80;99.90;;;;;;5054227;28;20688;-65
2022/06/30 11:04:01;;;;;;;2.20;1.13;;;30.80;99.90;;;;;;4966557;28;20699;-65
2022/06/30 11:07:09;;;;;;;1.45;0.80;;;30.70;99.90;;;;;;5057627;28;20191;-63
2022/06/30 11:10:17;;;;;;;0.90;0.90;;;30.90;99.90;;;;;;5058583;28;20286;-65
2022/06/30 11:13:09;;;;;;;0.90;0.90;;;30.90;99.90;;;;;;5049173;28;20231;-65
2022/06/30 11:15:57;;;;;;;0.90;0.90;;;31.20;99.90;;;;;;5045268;28;20243;-66
2022/06/30 11:18:26;;;;;;;0.95;0.95;;;31.30;99.90;;;;;;5045043;28;20212;-66
2022/06/30 11:20:55;;;;;;;1.00;1.00;;;31.10;99.90;;;;;;5051503;28;20246;-66
2022/06/30 11:23:23;;;;;;;0.98;0.88;;;31.10;99.90;;;;;;5040053;28;20243;-66
2022/06/30 11:28:44;;;;;;;0.90;0.90;;;31.10;99.90;;;;;;5039862;28;20235;-64
2022/06/30 11:31:32;;;;;;;1.02;1.00;;;31.30;99.90;;;;;;5051360;28;20223;-66
2022/06/30 11:34:03;;;;;;;0.93;0.93;;;31.50;99.90;;;;;;5050108;28;20261;-65
2022/06/30 11:36:31;;;;;;;0.95;0.95;;;31.50;99.90;;;;;;5045592;28;20204;-65
2022/06/30 11:39:03;;;;;;;0.77;0.77;;;31.40;99.90;;;;;;5042572;28;20294;-66
2022/06/30 11:44:21;;;;;;;0.80;0.80;;;31.60;99.90;;;;;;5047729;28;20210;-66
2022/06/30 11:46:54;;;;;;;1.85;1.00;;;31.70;99.90;;;;;;5034417;28;20251;-66
2022/06/30 11:49:23;;;;;;;0.90;0.90;;;31.80;99.90;;;;;;5050706;28;20192;-66
2022/06/30 11:51:52;;;;;;;0.90;0.90;;;31.80;99.90;;;;;;5043285;28;20621;-64
2022/06/30 11:54:24;;;;;;;2.05;0.65;;;31.90;99.90;;;;;;5037940;28;20200;-67
2022/06/30 11:57:00;;;;;;;0.90;0.90;;;31.90;99.90;;;;;;5051264;28;20321;-65
2022/06/30 11:59:27;;;;;;;1.00;1.00;;;31.90;99.90;;;;;;5035866;28;20680;-65
2022/06/30 12:02:04;;;;;;;0.82;0.82;;;31.80;99.90;;;;;;5042833;28;20574;-65
2022/06/30 12:04:32;;;;;;;0.90;0.90;;;31.90;99.90;;;;;;5038171;28;20207;-67
2022/06/30 12:07:03;;;;;;;0.90;0.90;;;31.70;99.90;;;;;;5050963;28;20640;-65
2022/06/30 12:09:36;;;;;;;1.05;0.88;;;31.80;99.90;;;;;;5043471;28;20200;-65
2022/06/30 12:12:08;;;;;;;0.80;0.80;;;32.00;99.90;;;;;;5052594;28;20218;-65
2022/06/30 12:14:42;;;;;;;0.90;0.90;;;32.00;99.90;;;;;;5056951;28;20294;-64
2022/06/30 12:17:21;;;;;;;1.02;0.90;;;31.90;99.90;;;;;;5053683;28;20238;-65
2022/06/30 12:19:49;;;;;;;1.30;1.20;;;32.00;99.90;;;;;;5054572;28;20214;-65
2022/06/30 12:22:20;;;;;;;0.90;0.90;;;32.10;99.90;;;;;;5051896;28;20208;-67
2022/06/30 12:24:50;;;;;;;1.00;1.00;;;32.30;99.90;;;;;;5040825;28;20205;-65
2022/06/30 12:27:31;;;;;;;0.90;0.90;;;32.50;99.90;;;;;;5042264;28;20228;-65
2022/06/30 12:30:00;;;;;;;0.95;0.95;;;32.50;99.90;;;;;;5054857;28;20579;-65
2022/06/30 12:32:28;;;;;;;1.02;1.02;;;32.40;99.90;;;;;;5046467;28;20211;-64
2022/06/30 12:34:58;;;;;;;0.90;0.90;;;32.30;99.90;;;;;;5054579;28;20207;-66
2022/06/30 12:37:36;;;;;;;1.17;1.10;;;32.10;99.90;;;;;;5054044;28;20274;-66
2022/06/30 12:40:06;;;;;;;0.70;0.70;;;32.10;99.90;;;;;;5046238;28;20212;-65
2022/06/30 12:42:47;;;;;;;0.70;0.70;;;32.00;99.90;;;;;;5055016;28;20286;-66
2022/06/30 12:45:44;;;;;;;1.00;1.00;;;32.10;99.90;;;;;;5046888;28;20195;-65
2022/06/30 12:48:12;;;;;;;0.88;0.88;;;32.30;99.90;;;;;;5051304;28;20296;-66
2022/06/30 12:50:44;;;;;;;0.77;0.77;;;32.50;99.90;;;;;;5050287;28;20597;-67
2022/06/30 12:53:23;;;;;;;1.13;0.90;;;32.70;99.90;;;;;;5057210;28;20846;-66
2022/06/30 12:56:02;;;;;;;1.00;1.00;;;32.80;99.90;;;;;;5055839;28;20219;-65
2022/06/30 12:58:52;;;;;;;0.80;0.80;;;32.90;99.90;;;;;;5052279;28;20587;-67
2022/06/30 13:01:21;;;;;;;0.80;0.80;;;32.80;99.90;;;;;;5042844;28;20542;-67
2022/06/30 13:04:00;;;;;;;0.90;0.90;;;32.70;99.90;;;;;;5054102;28;20208;-64
2022/06/30 13:06:33;;;;;;;1.00;1.00;;;32.60;99.90;;;;;;5045383;28;20600;-65
2022/06/30 13:09:06;;;;;;;0.90;0.90;;;32.70;99.90;;;;;;5047516;28;20679;-68
2022/06/30 13:11:37;;;;;;;0.82;0.82;;;32.80;99.90;;;;;;5054161;28;20670;-66
2022/06/30 13:14:12;;;;;;;1.00;0.95;;;32.80;99.90;;;;;;5045843;28;20236;-65
2022/06/30 13:16:40;;;;;;;0.90;0.90;;;32.50;99.90;;;;;;5051337;28;20219;-65
2022/06/30 13:19:10;;;;;;;1.17;0.90;;;32.70;99.90;;;;;;5053135;28;20211;-64
2022/06/30 13:21:41;;;;;;;0.95;0.95;;;32.70;99.90;;;;;;5047663;28;20217;-65